sensor_id;sensor_type;location;lat;lon;timestamp;temperature;humidity
15003;DHT22;7597;53.590;10.020;2022-10-16T00:01:32;14.00;31.00
15003;DHT22;7597;53.590;10.020;2022-10-16T00:03:59;14.10;20.90
15003;DHT22;7597;53.590;10.020;2022-10-16T00:06:26;14.10;13.60
15003;DHT22;7597;53.590;10.020;2022-10-16T00:08:52;14.10;6.90
15003;DHT22;7597;53.590;10.020;2022-10-16T00:11:20;14.10;1.00
15003;DHT22;7597;53.590;10.020;2022-10-16T00:13:46;14.10;1.00
15003;DHT22;7597;53.590;10.020;2022-10-16T00:16:13;14.10;1.00
15003;DHT22;7597;53.590;10.020;2022-10-16T00:18:39;14.00;1.00
15003;DHT22;7597;53.590;10.020;2022-10-16T00:21:07;14.00;1.00
15003;DHT22;7597;53.590;10.020;2022-10-16T00:23:32;14.00;1.00
15003;DHT22;7597;53.590;10.020;2022-10-16T00:26:00;14.00;1.00
15003;DHT22;7597;53.590;10.020;2022-10-16T00:28:26;14.00;1.00
15003;DHT22;7597;53.590;10.020;2022-10-16T00:30:53;14.10;1.00
15003;DHT22;7597;53.590;10.020;2022-10-16T00:33:20;14.10;1.00
15003;DHT22;7597;53.590;10.020;2022-10-16T00:35:48;14.10;1.00
15003;DHT22;7597;53.590;10.020;2022-10-16T00:38:14;14.10;1.00
15003;DHT22;7597;53.590;10.020;2022-10-16T00:40:41;14.20;1.00
15003;DHT22;7597;53.590;10.020;2022-10-16T00:43:14;14.10;1.00
15003;DHT22;7597;53.590;10.020;2022-10-16T00:45:40;14.10;1.00
15003;DHT22;7597;53.590;10.020;2022-10-16T00:48:07;14.10;1.00
15003;DHT22;7597;53.590;10.020;2022-10-16T00:50:33;14.10;1.00
15003;DHT22;7597;53.590;10.020;2022-10-16T00:53:00;14.20;1.00
15003;DHT22;7597;53.590;10.020;2022-10-16T00:55:26;14.20;1.00
15003;DHT22;7597;53.590;10.020;2022-10-16T00:57:53;14.30;1.00
15003;DHT22;7597;53.590;10.020;2022-10-16T01:00:21;14.40;1.00
15003;DHT22;7597;53.590;10.020;2022-10-16T01:02:53;14.40;1.00
15003;DHT22;7597;53.590;10.020;2022-10-16T01:05:20;14.40;1.00
15003;DHT22;7597;53.590;10.020;2022-10-16T01:07:53;14.40;1.00
15003;DHT22;7597;53.590;10.020;2022-10-16T01:13:21;14.30;1.00
15003;DHT22;7597;53.590;10.020;2022-10-16T01:15:54;14.30;1.00
15003;DHT22;7597;53.590;10.020;2022-10-16T01:18:30;14.30;1.00
15003;DHT22;7597;53.590;10.020;2022-10-16T01:20:59;14.30;1.00
15003;DHT22;7597;53.590;10.020;2022-10-16T01:23:31;14.30;1.00
15003;DHT22;7597;53.590;10.020;2022-10-16T01:25:58;14.30;1.00
15003;DHT22;7597;53.590;10.020;2022-10-16T01:28:21;14.20;1.00
15003;DHT22;7597;53.590;10.020;2022-10-16T01:30:47;14.30;1.00
15003;DHT22;7597;53.590;10.020;2022-10-16T01:33:17;14.30;1.00
15003;DHT22;7597;53.590;10.020;2022-10-16T01:35:42;14.20;1.00
15003;DHT22;7597;53.590;10.020;2022-10-16T01:38:10;14.20;1.00
15003;DHT22;7597;53.590;10.020;2022-10-16T01:40:36;14.20;1.00
15003;DHT22;7597;53.590;10.020;2022-10-16T01:43:05;14.20;1.00
15003;DHT22;7597;53.590;10.020;2022-10-16T01:45:30;14.10;1.00
15003;DHT22;7597;53.590;10.020;2022-10-16T01:47:56;14.00;1.00
15003;DHT22;7597;53.590;10.020;2022-10-16T01:50:23;14.00;1.00
15003;DHT22;7597;53.590;10.020;2022-10-16T01:52:50;14.00;1.00
15003;DHT22;7597;53.590;10.020;2022-10-16T01:55:18;13.90;1.00
15003;DHT22;7597;53.590;10.020;2022-10-16T01:57:44;13.80;1.00
15003;DHT22;7597;53.590;10.020;2022-10-16T02:00:11;13.80;1.00
15003;DHT22;7597;53.590;10.020;2022-10-16T02:02:38;13.80;1.00
15003;DHT22;7597;53.590;10.020;2022-10-16T02:05:08;13.80;1.00
15003;DHT22;7597;53.590;10.020;2022-10-16T02:07:31;13.70;1.00
15003;DHT22;7597;53.590;10.020;2022-10-16T02:09:59;13.70;1.00
15003;DHT22;7597;53.590;10.020;2022-10-16T02:12:26;13.70;1.00
15003;DHT22;7597;53.590;10.020;2022-10-16T02:14:52;13.80;1.00
15003;DHT22;7597;53.590;10.020;2022-10-16T02:17:19;13.70;1.00
15003;DHT22;7597;53.590;10.020;2022-10-16T02:19:46;13.70;1.00
15003;DHT22;7597;53.590;10.020;2022-10-16T02:22:15;13.30;1.00
15003;DHT22;7597;53.590;10.020;2022-10-16T02:27:40;13.60;1.00
15003;DHT22;7597;53.590;10.020;2022-10-16T02:30:11;13.60;1.00
15003;DHT22;7597;53.590;10.020;2022-10-16T02:32:36;13.70;1.00
15003;DHT22;7597;53.590;10.020;2022-10-16T02:35:02;13.70;1.00
15003;DHT22;7597;53.590;10.020;2022-10-16T02:37:28;13.60;1.00
15003;DHT22;7597;53.590;10.020;2022-10-16T02:39:56;13.50;1.00
15003;DHT22;7597;53.590;10.020;2022-10-16T02:42:27;13.50;1.00
15003;DHT22;7597;53.590;10.020;2022-10-16T02:44:48;13.50;1.00
15003;DHT22;7597;53.590;10.020;2022-10-16T02:47:15;13.60;1.00
15003;DHT22;7597;53.590;10.020;2022-10-16T02:49:42;13.50;1.00
15003;DHT22;7597;53.590;10.020;2022-10-16T02:52:08;13.50;1.00
15003;DHT22;7597;53.590;10.020;2022-10-16T02:54:35;13.50;1.00
15003;DHT22;7597;53.590;10.020;2022-10-16T02:57:02;13.40;1.00
15003;DHT22;7597;53.590;10.020;2022-10-16T02:59:28;13.40;1.00
15003;DHT22;7597;53.590;10.020;2022-10-16T03:01:55;13.40;1.00
15003;DHT22;7597;53.590;10.020;2022-10-16T03:04:22;13.30;1.00
15003;DHT22;7597;53.590;10.020;2022-10-16T03:06:48;13.30;1.00
15003;DHT22;7597;53.590;10.020;2022-10-16T03:09:15;13.20;1.00
15003;DHT22;7597;53.590;10.020;2022-10-16T03:11:42;13.20;1.00
15003;DHT22;7597;53.590;10.020;2022-10-16T03:14:08;13.20;1.00
15003;DHT22;7597;53.590;10.020;2022-10-16T03:16:36;13.20;1.00
15003;DHT22;7597;53.590;10.020;2022-10-16T03:19:02;13.20;1.00
15003;DHT22;7597;53.590;10.020;2022-10-16T03:21:29;13.20;1.00
15003;DHT22;7597;53.590;10.020;2022-10-16T03:23:56;13.20;1.00
15003;DHT22;7597;53.590;10.020;2022-10-16T03:26:23;13.20;1.00
15003;DHT22;7597;53.590;10.020;2022-10-16T03:28:50;13.20;1.00
15003;DHT22;7597;53.590;10.020;2022-10-16T03:31:16;13.20;1.00
15003;DHT22;7597;53.590;10.020;2022-10-16T03:33:43;13.10;1.00
15003;DHT22;7597;53.590;10.020;2022-10-16T03:36:10;13.10;1.00
15003;DHT22;7597;53.590;10.020;2022-10-16T03:38:36;13.10;1.00
15003;DHT22;7597;53.590;10.020;2022-10-16T03:41:03;13.00;1.00
15003;DHT22;7597;53.590;10.020;2022-10-16T03:43:30;13.00;1.00
15003;DHT22;7597;53.590;10.020;2022-10-16T03:45:57;12.90;1.00
15003;DHT22;7597;53.590;10.020;2022-10-16T03:48:23;12.90;1.00
15003;DHT22;7597;53.590;10.020;2022-10-16T03:50:50;12.90;1.00
15003;DHT22;7597;53.590;10.020;2022-10-16T03:53:17;13.00;1.00
15003;DHT22;7597;53.590;10.020;2022-10-16T03:55:43;13.00;1.00
15003;DHT22;7597;53.590;10.020;2022-10-16T03:58:10;13.00;1.00
15003;DHT22;7597;53.590;10.020;2022-10-16T04:00:40;13.00;1.00
15003;DHT22;7597;53.590;10.020;2022-10-16T04:03:06;13.00;1.00
15003;DHT22;7597;53.590;10.020;2022-10-16T04:05:32;13.00;1.00
15003;DHT22;7597;53.590;10.020;2022-10-16T04:07:59;12.90;1.00
15003;DHT22;7597;53.590;10.020;2022-10-16T04:10:25;12.90;1.00
15003;DHT22;7597;53.590;10.020;2022-10-16T04:12:52;12.90;1.00
15003;DHT22;7597;53.590;10.020;2022-10-16T04:15:19;12.90;1.00
15003;DHT22;7597;53.590;10.020;2022-10-16T04:17:46;12.90;1.00
15003;DHT22;7597;53.590;10.020;2022-10-16T04:20:12;13.00;1.00
15003;DHT22;7597;53.590;10.020;2022-10-16T04:22:39;13.00;1.00
15003;DHT22;7597;53.590;10.020;2022-10-16T04:25:06;12.90;1.00
15003;DHT22;7597;53.590;10.020;2022-10-16T04:27:32;12.90;1.00
15003;DHT22;7597;53.590;10.020;2022-10-16T04:29:59;12.90;1.00
15003;DHT22;7597;53.590;10.020;2022-10-16T04:32:26;13.00;1.00
15003;DHT22;7597;53.590;10.020;2022-10-16T04:34:52;13.00;1.00
15003;DHT22;7597;53.590;10.020;2022-10-16T04:37:22;13.00;1.00
15003;DHT22;7597;53.590;10.020;2022-10-16T04:39:45;13.00;1.00
15003;DHT22;7597;53.590;10.020;2022-10-16T04:42:12;12.90;1.00
15003;DHT22;7597;53.590;10.020;2022-10-16T04:44:39;12.90;1.00
15003;DHT22;7597;53.590;10.020;2022-10-16T04:47:05;12.80;1.00
15003;DHT22;7597;53.590;10.020;2022-10-16T04:49:32;12.80;1.00
15003;DHT22;7597;53.590;10.020;2022-10-16T04:51:59;12.80;1.00
15003;DHT22;7597;53.590;10.020;2022-10-16T04:54:25;12.80;1.00
15003;DHT22;7597;53.590;10.020;2022-10-16T04:56:52;12.80;1.00
15003;DHT22;7597;53.590;10.020;2022-10-16T04:59:19;12.80;1.00
15003;DHT22;7597;53.590;10.020;2022-10-16T05:01:45;12.80;1.00
15003;DHT22;7597;53.590;10.020;2022-10-16T05:04:12;12.80;1.00
15003;DHT22;7597;53.590;10.020;2022-10-16T05:06:39;12.90;1.00
15003;DHT22;7597;53.590;10.020;2022-10-16T05:09:06;12.80;1.00
15003;DHT22;7597;53.590;10.020;2022-10-16T05:11:33;12.90;1.00
15003;DHT22;7597;53.590;10.020;2022-10-16T05:14:00;12.80;1.00
15003;DHT22;7597;53.590;10.020;2022-10-16T05:16:26;12.80;1.00
15003;DHT22;7597;53.590;10.020;2022-10-16T05:18:53;12.80;1.00
15003;DHT22;7597;53.590;10.020;2022-10-16T05:21:19;12.90;1.00
15003;DHT22;7597;53.590;10.020;2022-10-16T05:23:46;12.90;1.00
15003;DHT22;7597;53.590;10.020;2022-10-16T05:26:13;12.90;1.00
15003;DHT22;7597;53.590;10.020;2022-10-16T05:28:39;12.90;1.00
15003;DHT22;7597;53.590;10.020;2022-10-16T05:31:06;13.00;1.00
15003;DHT22;7597;53.590;10.020;2022-10-16T05:33:32;13.00;1.00
15003;DHT22;7597;53.590;10.020;2022-10-16T05:36:03;13.00;1.00
15003;DHT22;7597;53.590;10.020;2022-10-16T05:38:28;13.00;1.00
15003;DHT22;7597;53.590;10.020;2022-10-16T05:40:55;13.10;1.00
15003;DHT22;7597;53.590;10.020;2022-10-16T05:43:22;13.10;1.00
15003;DHT22;7597;53.590;10.020;2022-10-16T05:45:55;13.10;1.00
15003;DHT22;7597;53.590;10.020;2022-10-16T05:48:21;13.10;1.00
15003;DHT22;7597;53.590;10.020;2022-10-16T05:50:47;13.20;1.00
15003;DHT22;7597;53.590;10.020;2022-10-16T05:53:14;13.10;1.00
15003;DHT22;7597;53.590;10.020;2022-10-16T05:55:41;13.20;1.00
15003;DHT22;7597;53.590;10.020;2022-10-16T05:58:07;13.20;1.00
15003;DHT22;7597;53.590;10.020;2022-10-16T06:00:34;13.20;1.00
15003;DHT22;7597;53.590;10.020;2022-10-16T06:03:01;13.30;1.00
15003;DHT22;7597;53.590;10.020;2022-10-16T06:05:27;13.40;1.00
15003;DHT22;7597;53.590;10.020;2022-10-16T06:07:54;13.40;1.00
15003;DHT22;7597;53.590;10.020;2022-10-16T06:10:21;13.50;1.00
15003;DHT22;7597;53.590;10.020;2022-10-16T06:12:47;13.50;1.00
15003;DHT22;7597;53.590;10.020;2022-10-16T06:15:14;13.60;1.00
15003;DHT22;7597;53.590;10.020;2022-10-16T06:17:41;13.70;1.00
15003;DHT22;7597;53.590;10.020;2022-10-16T06:20:08;13.70;1.00
15003;DHT22;7597;53.590;10.020;2022-10-16T06:22:34;13.70;1.00
15003;DHT22;7597;53.590;10.020;2022-10-16T06:25:01;13.70;1.00
15003;DHT22;7597;53.590;10.020;2022-10-16T06:27:28;13.60;1.00
15003;DHT22;7597;53.590;10.020;2022-10-16T06:29:54;13.70;1.00
15003;DHT22;7597;53.590;10.020;2022-10-16T06:32:21;13.70;1.00
15003;DHT22;7597;53.590;10.020;2022-10-16T06:34:47;13.70;1.00
15003;DHT22;7597;53.590;10.020;2022-10-16T06:37:14;13.70;1.00
15003;DHT22;7597;53.590;10.020;2022-10-16T06:39:41;13.60;1.00
15003;DHT22;7597;53.590;10.020;2022-10-16T06:42:08;13.80;1.00
15003;DHT22;7597;53.590;10.020;2022-10-16T06:44:35;13.80;1.00
15003;DHT22;7597;53.590;10.020;2022-10-16T06:47:01;14.10;1.00
15003;DHT22;7597;53.590;10.020;2022-10-16T06:49:28;14.30;1.00
15003;DHT22;7597;53.590;10.020;2022-10-16T06:51:55;14.40;1.00
15003;DHT22;7597;53.590;10.020;2022-10-16T06:54:21;14.60;1.00
15003;DHT22;7597;53.590;10.020;2022-10-16T06:56:48;15.00;1.00
15003;DHT22;7597;53.590;10.020;2022-10-16T06:59:15;15.60;1.00
15003;DHT22;7597;53.590;10.020;2022-10-16T07:01:41;16.20;1.00
15003;DHT22;7597;53.590;10.020;2022-10-16T07:04:08;16.80;1.00
15003;DHT22;7597;53.590;10.020;2022-10-16T07:06:35;17.30;1.00
15003;DHT22;7597;53.590;10.020;2022-10-16T07:09:03;18.30;1.00
15003;DHT22;7597;53.590;10.020;2022-10-16T07:11:30;18.50;1.00
15003;DHT22;7597;53.590;10.020;2022-10-16T07:13:56;18.50;1.00
15003;DHT22;7597;53.590;10.020;2022-10-16T07:16:24;18.60;1.00
15003;DHT22;7597;53.590;10.020;2022-10-16T07:18:49;19.10;1.00
15003;DHT22;7597;53.590;10.020;2022-10-16T07:21:17;19.10;1.00
15003;DHT22;7597;53.590;10.020;2022-10-16T07:23:43;19.10;1.00
15003;DHT22;7597;53.590;10.020;2022-10-16T07:26:11;18.30;1.00
15003;DHT22;7597;53.590;10.020;2022-10-16T07:28:37;18.30;1.00
15003;DHT22;7597;53.590;10.020;2022-10-16T07:31:05;17.90;1.00
15003;DHT22;7597;53.590;10.020;2022-10-16T07:33:31;17.10;1.00
15003;DHT22;7597;53.590;10.020;2022-10-16T07:35:57;16.70;1.00
15003;DHT22;7597;53.590;10.020;2022-10-16T07:38:24;16.40;1.00
15003;DHT22;7597;53.590;10.020;2022-10-16T07:40:57;16.30;1.00
15003;DHT22;7597;53.590;10.020;2022-10-16T07:43:23;16.30;1.00
15003;DHT22;7597;53.590;10.020;2022-10-16T07:45:50;16.80;1.00
15003;DHT22;7597;53.590;10.020;2022-10-16T07:48:17;16.70;1.00
15003;DHT22;7597;53.590;10.020;2022-10-16T07:50:43;17.20;1.00
15003;DHT22;7597;53.590;10.020;2022-10-16T07:53:10;17.90;1.00
15003;DHT22;7597;53.590;10.020;2022-10-16T07:55:37;18.30;1.00
15003;DHT22;7597;53.590;10.020;2022-10-16T07:58:04;18.50;1.00
15003;DHT22;7597;53.590;10.020;2022-10-16T08:00:30;18.10;1.00
15003;DHT22;7597;53.590;10.020;2022-10-16T08:02:57;17.60;1.00
15003;DHT22;7597;53.590;10.020;2022-10-16T08:05:23;17.30;1.00
15003;DHT22;7597;53.590;10.020;2022-10-16T08:07:50;17.00;1.00
15003;DHT22;7597;53.590;10.020;2022-10-16T08:10:17;16.80;1.00
15003;DHT22;7597;53.590;10.020;2022-10-16T08:12:43;16.60;1.00
15003;DHT22;7597;53.590;10.020;2022-10-16T08:15:10;16.60;1.00
15003;DHT22;7597;53.590;10.020;2022-10-16T08:17:37;16.50;1.00
15003;DHT22;7597;53.590;10.020;2022-10-16T08:20:03;16.40;1.00
15003;DHT22;7597;53.590;10.020;2022-10-16T08:22:31;16.40;1.00
15003;DHT22;7597;53.590;10.020;2022-10-16T08:24:57;16.70;1.00
15003;DHT22;7597;53.590;10.020;2022-10-16T08:27:24;17.20;1.00
15003;DHT22;7597;53.590;10.020;2022-10-16T08:29:50;17.90;1.00
15003;DHT22;7597;53.590;10.020;2022-10-16T08:32:17;18.70;1.00
15003;DHT22;7597;53.590;10.020;2022-10-16T08:34:44;19.00;1.00
15003;DHT22;7597;53.590;10.020;2022-10-16T08:37:10;19.90;1.00
15003;DHT22;7597;53.590;10.020;2022-10-16T08:39:38;21.10;1.00
15003;DHT22;7597;53.590;10.020;2022-10-16T08:42:28;21.50;1.00
15003;DHT22;7597;53.590;10.020;2022-10-16T08:47:48;20.70;1.00
15003;DHT22;7597;53.590;10.020;2022-10-16T08:50:13;20.20;1.00
15003;DHT22;7597;53.590;10.020;2022-10-16T08:52:39;20.30;1.00
15003;DHT22;7597;53.590;10.020;2022-10-16T08:55:06;21.00;1.00
15003;DHT22;7597;53.590;10.020;2022-10-16T08:57:33;20.50;1.00
15003;DHT22;7597;53.590;10.020;2022-10-16T09:00:00;20.20;1.00
15003;DHT22;7597;53.590;10.020;2022-10-16T09:03:40;20.10;1.00
15003;DHT22;7597;53.590;10.020;2022-10-16T09:05:32;20.30;1.00
15003;DHT22;7597;53.590;10.020;2022-10-16T09:08:03;20.70;1.00
15003;DHT22;7597;53.590;10.020;2022-10-16T09:10:33;20.40;1.00
15003;DHT22;7597;53.590;10.020;2022-10-16T09:13:17;20.20;1.00
15003;DHT22;7597;53.590;10.020;2022-10-16T09:15:53;20.10;1.00
15003;DHT22;7597;53.590;10.020;2022-10-16T09:18:26;20.60;1.00
15003;DHT22;7597;53.590;10.020;2022-10-16T09:20:53;21.30;1.00
15003;DHT22;7597;53.590;10.020;2022-10-16T09:23:27;21.50;1.00
15003;DHT22;7597;53.590;10.020;2022-10-16T09:25:54;21.50;1.00
15003;DHT22;7597;53.590;10.020;2022-10-16T09:28:21;22.80;1.00
15003;DHT22;7597;53.590;10.020;2022-10-16T09:30:48;21.90;1.00
15003;DHT22;7597;53.590;10.020;2022-10-16T09:33:14;22.40;1.00
15003;DHT22;7597;53.590;10.020;2022-10-16T09:35:43;22.40;1.00
15003;DHT22;7597;53.590;10.020;2022-10-16T09:38:09;23.70;
15003;DHT22;7597;53.590;10.020;2022-10-16T09:40:36;23.60;1.00
15003;DHT22;7597;53.590;10.020;2022-10-16T09:43:14;23.40;1.00
15003;DHT22;7597;53.590;10.020;2022-10-16T09:45:34;23.60;1.00
15003;DHT22;7597;53.590;10.020;2022-10-16T09:48:08;23.30;1.00
15003;DHT22;7597;53.590;10.020;2022-10-16T09:50:28;23.50;1.00
15003;DHT22;7597;53.590;10.020;2022-10-16T09:53:17;23.30;1.00
15003;DHT22;7597;53.590;10.020;2022-10-16T09:55:48;23.10;1.00
15003;DHT22;7597;53.590;10.020;2022-10-16T09:58:14;23.40;1.00
15003;DHT22;7597;53.590;10.020;2022-10-16T10:00:41;24.00;1.00
15003;DHT22;7597;53.590;10.020;2022-10-16T10:03:10;24.90;1.00
15003;DHT22;7597;53.590;10.020;2022-10-16T10:05:36;24.70;1.00
15003;DHT22;7597;53.590;10.020;2022-10-16T10:08:03;24.40;1.00
15003;DHT22;7597;53.590;10.020;2022-10-16T10:10:30;24.50;1.00
15003;DHT22;7597;53.590;10.020;2022-10-16T10:12:57;24.40;1.00
15003;DHT22;7597;53.590;10.020;2022-10-16T10:15:24;23.50;1.00
15003;DHT22;7597;53.590;10.020;2022-10-16T10:17:54;22.80;1.00
15003;DHT22;7597;53.590;10.020;2022-10-16T10:20:27;22.70;1.00
15003;DHT22;7597;53.590;10.020;2022-10-16T10:22:54;23.20;1.00
15003;DHT22;7597;53.590;10.020;2022-10-16T10:25:26;23.30;1.00
15003;DHT22;7597;53.590;10.020;2022-10-16T10:28:17;22.80;1.00
15003;DHT22;7597;53.590;10.020;2022-10-16T10:31:01;22.70;1.00
15003;DHT22;7597;53.590;10.020;2022-10-16T10:36:20;24.30;1.00
15003;DHT22;7597;53.590;10.020;2022-10-16T10:38:47;24.50;1.00
15003;DHT22;7597;53.590;10.020;2022-10-16T10:41:33;24.60;1.00
15003;DHT22;7597;53.590;10.020;2022-10-16T10:46:34;25.50;1.00
15003;DHT22;7597;53.590;10.020;2022-10-16T10:49:13;25.90;1.00
15003;DHT22;7597;53.590;10.020;2022-10-16T10:51:44;24.60;1.00
15003;DHT22;7597;53.590;10.020;2022-10-16T10:54:22;23.80;1.00
15003;DHT22;7597;53.590;10.020;2022-10-16T10:56:51;24.20;1.00
15003;DHT22;7597;53.590;10.020;2022-10-16T10:59:57;24.70;1.00
15003;DHT22;7597;53.590;10.020;2022-10-16T11:02:44;25.10;1.00
15003;DHT22;7597;53.590;10.020;2022-10-16T11:05:28;25.60;1.00
15003;DHT22;7597;53.590;10.020;2022-10-16T11:07:58;25.20;1.00
15003;DHT22;7597;53.590;10.020;2022-10-16T11:10:26;25.10;1.00
15003;DHT22;7597;53.590;10.020;2022-10-16T11:12:52;25.10;1.00
15003;DHT22;7597;53.590;10.020;2022-10-16T11:15:20;25.40;1.00
15003;DHT22;7597;53.590;10.020;2022-10-16T11:17:50;25.00;1.00
15003;DHT22;7597;53.590;10.020;2022-10-16T11:20:25;25.20;1.00
15003;DHT22;7597;53.590;10.020;2022-10-16T11:22:54;25.20;1.00
15003;DHT22;7597;53.590;10.020;2022-10-16T11:25:31;24.30;1.00
15003;DHT22;7597;53.590;10.020;2022-10-16T11:28:15;24.20;1.00
15003;DHT22;7597;53.590;10.020;2022-10-16T11:30:44;24.10;1.00
15003;DHT22;7597;53.590;10.020;2022-10-16T11:33:21;24.60;1.00
15003;DHT22;7597;53.590;10.020;2022-10-16T11:35:43;23.90;1.00
15003;DHT22;7597;53.590;10.020;2022-10-16T11:38:15;22.60;1.00
15003;DHT22;7597;53.590;10.020;2022-10-16T11:40:39;21.70;1.00
15003;DHT22;7597;53.590;10.020;2022-10-16T11:43:13;21.30;1.00
15003;DHT22;7597;53.590;10.020;2022-10-16T11:45:41;21.00;1.00
15003;DHT22;7597;53.590;10.020;2022-10-16T11:48:15;20.10;1.00
15003;DHT22;7597;53.590;10.020;2022-10-16T11:50:43;20.10;1.00
15003;DHT22;7597;53.590;10.020;2022-10-16T11:53:13;20.40;1.00
15003;DHT22;7597;53.590;10.020;2022-10-16T11:55:40;20.40;1.00
15003;DHT22;7597;53.590;10.020;2022-10-16T11:58:14;20.40;1.00
15003;DHT22;7597;53.590;10.020;2022-10-16T12:00:43;20.40;1.00
15003;DHT22;7597;53.590;10.020;2022-10-16T12:03:27;20.60;1.00
15003;DHT22;7597;53.590;10.020;2022-10-16T12:05:56;20.50;1.00
15003;DHT22;7597;53.590;10.020;2022-10-16T12:08:21;19.80;1.00
15003;DHT22;7597;53.590;10.020;2022-10-16T12:10:47;19.30;1.00
15003;DHT22;7597;53.590;10.020;2022-10-16T12:15:52;19.00;1.00
15003;DHT22;7597;53.590;10.020;2022-10-16T12:18:22;18.60;1.00
15003;DHT22;7597;53.590;10.020;2022-10-16T12:20:56;18.70;1.00
15003;DHT22;7597;53.590;10.020;2022-10-16T12:23:24;19.10;1.00
15003;DHT22;7597;53.590;10.020;2022-10-16T12:25:54;19.50;1.00
15003;DHT22;7597;53.590;10.020;2022-10-16T12:28:22;19.80;1.00
15003;DHT22;7597;53.590;10.020;2022-10-16T12:30:54;20.00;1.00
15003;DHT22;7597;53.590;10.020;2022-10-16T12:33:22;19.90;1.00
15003;DHT22;7597;53.590;10.020;2022-10-16T12:35:48;20.10;1.00
15003;DHT22;7597;53.590;10.020;2022-10-16T12:38:18;20.10;1.00
15003;DHT22;7597;53.590;10.020;2022-10-16T12:40:44;20.10;1.00
15003;DHT22;7597;53.590;10.020;2022-10-16T12:43:13;20.00;1.00
15003;DHT22;7597;53.590;10.020;2022-10-16T12:45:38;20.00;1.00
15003;DHT22;7597;53.590;10.020;2022-10-16T12:48:18;20.30;1.00
15003;DHT22;7597;53.590;10.020;2022-10-16T12:50:36;20.30;1.00
15003;DHT22;7597;53.590;10.020;2022-10-16T12:53:01;20.50;1.00
15003;DHT22;7597;53.590;10.020;2022-10-16T12:55:27;20.50;1.00
15003;DHT22;7597;53.590;10.020;2022-10-16T12:58:07;20.30;1.00
15003;DHT22;7597;53.590;10.020;2022-10-16T13:00:41;20.10;1.00
15003;DHT22;7597;53.590;10.020;2022-10-16T13:03:44;20.20;1.00
15003;DHT22;7597;53.590;10.020;2022-10-16T13:06:08;20.40;1.00
15003;DHT22;7597;53.590;10.020;2022-10-16T13:08:44;20.50;1.00
15003;DHT22;7597;53.590;10.020;2022-10-16T13:11:47;20.90;1.00
15003;DHT22;7597;53.590;10.020;2022-10-16T13:14:19;21.10;1.00
15003;DHT22;7597;53.590;10.020;2022-10-16T13:17:36;21.30;1.00
15003;DHT22;7597;53.590;10.020;2022-10-16T13:19:48;20.80;1.00
15003;DHT22;7597;53.590;10.020;2022-10-16T13:22:24;20.80;1.00
15003;DHT22;7597;53.590;10.020;2022-10-16T13:27:43;20.50;1.00
15003;DHT22;7597;53.590;10.020;2022-10-16T13:30:16;20.40;1.00
15003;DHT22;7597;53.590;10.020;2022-10-16T13:32:40;20.30;1.00
15003;DHT22;7597;53.590;10.020;2022-10-16T13:35:19;20.40;1.00
15003;DHT22;7597;53.590;10.020;2022-10-16T13:37:45;20.30;1.00
15003;DHT22;7597;53.590;10.020;2022-10-16T13:40:18;20.10;1.00
15003;DHT22;7597;53.590;10.020;2022-10-16T13:42:44;20.20;1.00
15003;DHT22;7597;53.590;10.020;2022-10-16T13:45:17;20.30;1.00
15003;DHT22;7597;53.590;10.020;2022-10-16T13:47:43;20.30;1.00
15003;DHT22;7597;53.590;10.020;2022-10-16T13:50:12;20.30;1.00
15003;DHT22;7597;53.590;10.020;2022-10-16T13:52:38;20.50;1.00
15003;DHT22;7597;53.590;10.020;2022-10-16T13:55:15;20.50;1.00
15003;DHT22;7597;53.590;10.020;2022-10-16T13:57:40;20.20;1.00
15003;DHT22;7597;53.590;10.020;2022-10-16T14:00:23;20.00;1.00
15003;DHT22;7597;53.590;10.020;2022-10-16T14:02:55;20.00;1.00
15003;DHT22;7597;53.590;10.020;2022-10-16T14:05:18;20.20;1.00
15003;DHT22;7597;53.590;10.020;2022-10-16T14:07:47;20.50;1.00
15003;DHT22;7597;53.590;10.020;2022-10-16T14:10:20;20.70;1.00
15003;DHT22;7597;53.590;10.020;2022-10-16T14:12:44;20.60;1.00
15003;DHT22;7597;53.590;10.020;2022-10-16T14:15:16;20.70;1.00
15003;DHT22;7597;53.590;10.020;2022-10-16T14:17:43;20.80;1.00
15003;DHT22;7597;53.590;10.020;2022-10-16T14:20:12;20.60;1.00
15003;DHT22;7597;53.590;10.020;2022-10-16T14:22:36;20.60;1.00
15003;DHT22;7597;53.590;10.020;2022-10-16T14:25:18;20.70;1.00
15003;DHT22;7597;53.590;10.020;2022-10-16T14:27:33;20.80;1.00
15003;DHT22;7597;53.590;10.020;2022-10-16T14:30:19;21.00;1.00
15003;DHT22;7597;53.590;10.020;2022-10-16T14:32:53;21.10;1.00
15003;DHT22;7597;53.590;10.020;2022-10-16T14:35:29;21.00;1.00
15003;DHT22;7597;53.590;10.020;2022-10-16T14:37:54;20.70;1.00
15003;DHT22;7597;53.590;10.020;2022-10-16T14:40:21;20.50;1.00
15003;DHT22;7597;53.590;10.020;2022-10-16T14:42:47;20.30;1.00
15003;DHT22;7597;53.590;10.020;2022-10-16T14:45:14;20.10;1.00
15003;DHT22;7597;53.590;10.020;2022-10-16T14:47:46;20.20;1.00
15003;DHT22;7597;53.590;10.020;2022-10-16T14:50:07;20.20;1.00
15003;DHT22;7597;53.590;10.020;2022-10-16T14:52:34;20.20;1.00
15003;DHT22;7597;53.590;10.020;2022-10-16T14:55:01;20.00;1.00
15003;DHT22;7597;53.590;10.020;2022-10-16T14:57:35;19.90;1.00
15003;DHT22;7597;53.590;10.020;2022-10-16T14:59:54;20.00;1.00
15003;DHT22;7597;53.590;10.020;2022-10-16T15:02:25;19.90;1.00
15003;DHT22;7597;53.590;10.020;2022-10-16T15:04:49;20.10;1.00
15003;DHT22;7597;53.590;10.020;2022-10-16T15:07:16;20.10;1.00
15003;DHT22;7597;53.590;10.020;2022-10-16T15:09:43;19.80;1.00
15003;DHT22;7597;53.590;10.020;2022-10-16T15:12:09;19.50;1.00
15003;DHT22;7597;53.590;10.020;2022-10-16T15:14:36;19.20;1.00
15003;DHT22;7597;53.590;10.020;2022-10-16T15:17:03;19.00;1.00
15003;DHT22;7597;53.590;10.020;2022-10-16T15:19:30;18.70;1.00
15003;DHT22;7597;53.590;10.020;2022-10-16T15:21:57;18.50;1.00
15003;DHT22;7597;53.590;10.020;2022-10-16T15:24:23;18.20;1.00
15003;DHT22;7597;53.590;10.020;2022-10-16T15:26:50;18.10;1.00
15003;DHT22;7597;53.590;10.020;2022-10-16T15:29:17;17.90;1.00
15003;DHT22;7597;53.590;10.020;2022-10-16T15:31:43;17.80;1.00
15003;DHT22;7597;53.590;10.020;2022-10-16T15:34:11;17.50;1.00
15003;DHT22;7597;53.590;10.020;2022-10-16T15:36:39;17.40;1.00
15003;DHT22;7597;53.590;10.020;2022-10-16T15:39:14;17.30;1.00
15003;DHT22;7597;53.590;10.020;2022-10-16T15:41:39;17.30;1.00
15003;DHT22;7597;53.590;10.020;2022-10-16T15:44:06;17.20;1.00
15003;DHT22;7597;53.590;10.020;2022-10-16T15:46:33;17.00;1.00
15003;DHT22;7597;53.590;10.020;2022-10-16T15:49:00;16.90;1.00
15003;DHT22;7597;53.590;10.020;2022-10-16T15:51:27;16.90;1.00
15003;DHT22;7597;53.590;10.020;2022-10-16T15:53:56;16.80;1.00
15003;DHT22;7597;53.590;10.020;2022-10-16T15:56:23;16.70;1.00
15003;DHT22;7597;53.590;10.020;2022-10-16T15:58:52;16.60;1.00
15003;DHT22;7597;53.590;10.020;2022-10-16T16:01:20;16.50;1.00
15003;DHT22;7597;53.590;10.020;2022-10-16T16:03:47;16.40;1.00
15003;DHT22;7597;53.590;10.020;2022-10-16T16:06:14;16.30;1.00
15003;DHT22;7597;53.590;10.020;2022-10-16T16:08:40;16.30;1.00
15003;DHT22;7597;53.590;10.020;2022-10-16T16:11:08;16.10;1.00
15003;DHT22;7597;53.590;10.020;2022-10-16T16:13:34;16.10;1.00